sensor_id;sensor_type;location;lat;lon;timestamp;P1;durP1;ratioP1;P2;durP2;ratioP2
31786;SDS011;18356;52.380;9.820;2022-10-17T00:01:24;7.30;;;5.15;;
31786;SDS011;18356;52.380;9.820;2022-10-17T00:03:50;11.02;;;5.20;;
31786;SDS011;18356;52.380;9.820;2022-10-17T00:06:17;8.63;;;4.82;;
31786;SDS011;18356;52.380;9.820;2022-10-17T00:08:43;9.63;;;5.22;;
31786;SDS011;18356;52.380;9.820;2022-10-17T00:11:14;9.82;;;4.88;;
31786;SDS011;18356;52.380;9.820;2022-10-17T00:13:40;9.63;;;4.65;;
31786;SDS011;18356;52.380;9.820;2022-10-17T00:16:07;12.30;;;5.15;;
31786;SDS011;18356;52.380;9.820;2022-10-17T00:18:33;10.63;;;5.22;;
31786;SDS011;18356;52.380;9.820;2022-10-17T00:20:59;11.85;;;5.05;;
31786;SDS011;18356;52.380;9.820;2022-10-17T00:23:25;13.77;;;5.22;;
31786;SDS011;18356;52.380;9.820;2022-10-17T00:26:00;13.65;;;5.65;;
31786;SDS011;18356;52.380;9.820;2022-10-17T00:28:26;13.45;;;5.25;;
31786;SDS011;18356;52.380;9.820;2022-10-17T00:30:56;11.15;;;5.45;;
31786;SDS011;18356;52.380;9.820;2022-10-17T00:33:22;12.32;;;5.32;;
31786;SDS011;18356;52.380;9.820;2022-10-17T00:35:48;11.98;;;5.28;;
31786;SDS011;18356;52.380;9.820;2022-10-17T00:38:14;14.40;;;5.20;;
31786;SDS011;18356;52.380;9.820;2022-10-17T00:40:40;18.92;;;5.40;;
31786;SDS011;18356;52.380;9.820;2022-10-17T00:43:16;11.50;;;5.35;;
31786;SDS011;18356;52.380;9.820;2022-10-17T00:45:42;12.52;;;5.70;;
31786;SDS011;18356;52.380;9.820;2022-10-17T00:48:08;19.48;;;6.30;;
31786;SDS011;18356;52.380;9.820;2022-10-17T00:50:35;11.00;;;5.07;;
31786;SDS011;18356;52.380;9.820;2022-10-17T00:53:03;17.20;;;6.88;;
31786;SDS011;18356;52.380;9.820;2022-10-17T00:55:31;22.15;;;5.82;;
31786;SDS011;18356;52.380;9.820;2022-10-17T00:57:58;15.80;;;5.50;;
31786;SDS011;18356;52.380;9.820;2022-10-17T01:00:25;18.95;;;5.60;;
31786;SDS011;18356;52.380;9.820;2022-10-17T01:02:51;19.77;;;5.80;;
31786;SDS011;18356;52.380;9.820;2022-10-17T01:05:17;9.75;;;5.18;;
31786;SDS011;18356;52.380;9.820;2022-10-17T01:07:44;14.32;;;5.32;;
31786;SDS011;18356;52.380;9.820;2022-10-17T01:10:10;15.77;;;5.43;;
31786;SDS011;18356;52.380;9.820;2022-10-17T01:12:40;12.05;;;5.15;;
31786;SDS011;18356;52.380;9.820;2022-10-17T01:22:33;15.18;;;5.32;;
31786;SDS011;18356;52.380;9.820;2022-10-17T01:25:22;13.00;;;5.55;;
31786;SDS011;18356;52.380;9.820;2022-10-17T01:27:52;13.10;;;5.03;;
31786;SDS011;18356;52.380;9.820;2022-10-17T01:38:20;12.77;;;4.83;;
31786;SDS011;18356;52.380;9.820;2022-10-17T01:40:49;9.57;;;5.63;;
31786;SDS011;18356;52.380;9.820;2022-10-17T01:43:20;13.07;;;6.05;;
31786;SDS011;18356;52.380;9.820;2022-10-17T01:45:52;11.97;;;5.47;;
31786;SDS011;18356;52.380;9.820;2022-10-17T01:48:23;14.52;;;5.97;;
31786;SDS011;18356;52.380;9.820;2022-10-17T01:50:51;11.40;;;5.55;;
31786;SDS011;18356;52.380;9.820;2022-10-17T01:53:21;16.13;;;5.68;;
31786;SDS011;18356;52.380;9.820;2022-10-17T01:55:49;15.95;;;6.07;;
31786;SDS011;18356;52.380;9.820;2022-10-17T01:58:21;13.90;;;5.93;;
31786;SDS011;18356;52.380;9.820;2022-10-17T02:00:48;11.37;;;5.33;;
31786;SDS011;18356;52.380;9.820;2022-10-17T02:03:16;16.87;;;6.27;;
31786;SDS011;18356;52.380;9.820;2022-10-17T02:05:44;10.70;;;5.43;;
31786;SDS011;18356;52.380;9.820;2022-10-17T02:08:10;11.07;;;5.90;;
31786;SDS011;18356;52.380;9.820;2022-10-17T02:13:08;10.27;;;5.60;;
31786;SDS011;18356;52.380;9.820;2022-10-17T02:15:54;12.45;;;5.70;;
31786;SDS011;18356;52.380;9.820;2022-10-17T02:26:10;13.52;;;6.35;;
31786;SDS011;18356;52.380;9.820;2022-10-17T02:28:45;15.10;;;6.90;;
31786;SDS011;18356;52.380;9.820;2022-10-17T02:31:21;9.57;;;5.30;;
31786;SDS011;18356;52.380;9.820;2022-10-17T02:33:51;11.57;;;5.50;;
31786;SDS011;18356;52.380;9.820;2022-10-17T02:36:24;10.73;;;5.97;;
31786;SDS011;18356;52.380;9.820;2022-10-17T02:38:52;15.10;;;5.60;;
31786;SDS011;18356;52.380;9.820;2022-10-17T02:41:19;11.17;;;5.57;;
31786;SDS011;18356;52.380;9.820;2022-10-17T02:43:46;12.90;;;5.20;;
31786;SDS011;18356;52.380;9.820;2022-10-17T02:46:14;13.57;;;5.90;;
31786;SDS011;18356;52.380;9.820;2022-10-17T02:48:57;10.37;;;5.50;;
31786;SDS011;18356;52.380;9.820;2022-10-17T02:51:35;11.10;;;6.07;;
31786;SDS011;18356;52.380;9.820;2022-10-17T02:54:07;13.83;;;6.43;;
31786;SDS011;18356;52.380;9.820;2022-10-17T02:56:36;11.13;;;5.47;;
31786;SDS011;18356;52.380;9.820;2022-10-17T02:59:05;13.63;;;6.03;;
31786;SDS011;18356;52.380;9.820;2022-10-17T03:01:31;11.67;;;5.50;;
31786;SDS011;18356;52.380;9.820;2022-10-17T03:04:04;13.43;;;6.10;;
31786;SDS011;18356;52.380;9.820;2022-10-17T03:06:30;13.50;;;6.57;;
31786;SDS011;18356;52.380;9.820;2022-10-17T03:08:56;9.43;;;5.73;;
31786;SDS011;18356;52.380;9.820;2022-10-17T03:11:22;8.97;;;5.70;;
31786;SDS011;18356;52.380;9.820;2022-10-17T03:13:48;14.17;;;6.30;;
31786;SDS011;18356;52.380;9.820;2022-10-17T03:16:14;12.67;;;6.33;;
31786;SDS011;18356;52.380;9.820;2022-10-17T03:18:40;11.07;;;6.40;;
31786;SDS011;18356;52.380;9.820;2022-10-17T03:21:06;9.70;;;5.23;;
31786;SDS011;18356;52.380;9.820;2022-10-17T03:23:32;13.83;;;5.47;;
31786;SDS011;18356;52.380;9.820;2022-10-17T03:26:01;10.40;;;5.23;;
31786;SDS011;18356;52.380;9.820;2022-10-17T03:28:27;16.50;;;6.50;;
31786;SDS011;18356;52.380;9.820;2022-10-17T03:30:53;16.20;;;5.97;;
31786;SDS011;18356;52.380;9.820;2022-10-17T03:33:19;11.53;;;5.17;;
31786;SDS011;18356;52.380;9.820;2022-10-17T03:35:45;13.23;;;5.17;;
31786;SDS011;18356;52.380;9.820;2022-10-17T03:38:11;9.30;;;5.37;;
31786;SDS011;18356;52.380;9.820;2022-10-17T03:40:37;7.43;;;4.40;;
31786;SDS011;18356;52.380;9.820;2022-10-17T03:43:03;10.47;;;5.00;;
31786;SDS011;18356;52.380;9.820;2022-10-17T03:45:30;9.07;;;5.00;;
31786;SDS011;18356;52.380;9.820;2022-10-17T03:47:57;9.47;;;6.30;;
31786;SDS011;18356;52.380;9.820;2022-10-17T03:50:23;11.13;;;4.80;;
31786;SDS011;18356;52.380;9.820;2022-10-17T03:52:49;10.87;;;5.00;;
31786;SDS011;18356;52.380;9.820;2022-10-17T03:55:15;10.37;;;5.00;;
31786;SDS011;18356;52.380;9.820;2022-10-17T03:57:42;8.20;;;4.77;;
31786;SDS011;18356;52.380;9.820;2022-10-17T04:00:08;8.67;;;5.00;;
31786;SDS011;18356;52.380;9.820;2022-10-17T04:02:34;11.93;;;4.77;;
31786;SDS011;18356;52.380;9.820;2022-10-17T04:05:00;15.93;;;5.27;;
31786;SDS011;18356;52.380;9.820;2022-10-17T04:07:26;9.30;;;5.10;;
31786;SDS011;18356;52.380;9.820;2022-10-17T04:09:52;8.37;;;4.37;;
31786;SDS011;18356;52.380;9.820;2022-10-17T04:12:18;7.97;;;4.87;;
31786;SDS011;18356;52.380;9.820;2022-10-17T04:14:45;9.97;;;4.70;;
31786;SDS011;18356;52.380;9.820;2022-10-17T04:17:11;9.60;;;5.00;;
31786;SDS011;18356;52.380;9.820;2022-10-17T04:19:37;9.83;;;5.23;;
31786;SDS011;18356;52.380;9.820;2022-10-17T04:22:03;9.00;;;5.00;;
31786;SDS011;18356;52.380;9.820;2022-10-17T04:24:29;9.27;;;4.80;;
31786;SDS011;18356;52.380;9.820;2022-10-17T04:26:55;17.90;;;6.40;;
31786;SDS011;18356;52.380;9.820;2022-10-17T04:29:21;11.17;;;4.90;;
31786;SDS011;18356;52.380;9.820;2022-10-17T04:31:47;10.60;;;5.17;;
31786;SDS011;18356;52.380;9.820;2022-10-17T04:34:13;9.50;;;5.93;;
31786;SDS011;18356;52.380;9.820;2022-10-17T04:36:40;8.27;;;4.80;;
31786;SDS011;18356;52.380;9.820;2022-10-17T04:39:06;8.10;;;5.27;;
31786;SDS011;18356;52.380;9.820;2022-10-17T04:41:32;7.73;;;5.10;;
31786;SDS011;18356;52.380;9.820;2022-10-17T04:43:58;9.10;;;5.03;;
31786;SDS011;18356;52.380;9.820;2022-10-17T04:46:24;9.27;;;5.67;;
31786;SDS011;18356;52.380;9.820;2022-10-17T04:48:50;9.90;;;5.53;;
31786;SDS011;18356;52.380;9.820;2022-10-17T04:51:18;6.50;;;4.73;;
31786;SDS011;18356;52.380;9.820;2022-10-17T04:53:44;10.77;;;5.33;;
31786;SDS011;18356;52.380;9.820;2022-10-17T04:56:11;9.27;;;4.90;;
31786;SDS011;18356;52.380;9.820;2022-10-17T04:58:38;9.63;;;4.97;;
31786;SDS011;18356;52.380;9.820;2022-10-17T05:01:08;9.67;;;5.87;;
31786;SDS011;18356;52.380;9.820;2022-10-17T05:03:34;13.47;;;6.10;;
31786;SDS011;18356;52.380;9.820;2022-10-17T05:06:08;10.93;;;6.50;;
31786;SDS011;18356;52.380;9.820;2022-10-17T05:08:34;9.53;;;6.37;;
31786;SDS011;18356;52.380;9.820;2022-10-17T05:11:01;10.43;;;6.03;;
31786;SDS011;18356;52.380;9.820;2022-10-17T05:13:27;10.63;;;6.87;;
31786;SDS011;18356;52.380;9.820;2022-10-17T05:15:57;13.17;;;7.37;;
31786;SDS011;18356;52.380;9.820;2022-10-17T05:18:23;11.03;;;7.60;;
31786;SDS011;18356;52.380;9.820;2022-10-17T05:20:49;11.40;;;7.53;;
31786;SDS011;18356;52.380;9.820;2022-10-17T05:23:15;12.03;;;7.63;;
31786;SDS011;18356;52.380;9.820;2022-10-17T05:25:41;10.63;;;6.67;;
31786;SDS011;18356;52.380;9.820;2022-10-17T05:28:07;9.43;;;7.17;;
31786;SDS011;18356;52.380;9.820;2022-10-17T05:30:33;11.60;;;7.10;;
31786;SDS011;18356;52.380;9.820;2022-10-17T05:33:00;11.63;;;7.13;;
31786;SDS011;18356;52.380;9.820;2022-10-17T05:35:27;11.15;;;7.28;;
31786;SDS011;18356;52.380;9.820;2022-10-17T05:37:53;17.63;;;7.38;;
31786;SDS011;18356;52.380;9.820;2022-10-17T05:40:19;12.57;;;6.80;;
31786;SDS011;18356;52.380;9.820;2022-10-17T05:42:48;8.65;;;6.30;;
31786;SDS011;18356;52.380;9.820;2022-10-17T05:45:14;10.88;;;6.05;;
31786;SDS011;18356;52.380;9.820;2022-10-17T05:47:40;10.15;;;6.63;;
31786;SDS011;18356;52.380;9.820;2022-10-17T05:50:07;13.02;;;7.13;;
31786;SDS011;18356;52.380;9.820;2022-10-17T05:52:33;11.75;;;7.35;;
31786;SDS011;18356;52.380;9.820;2022-10-17T05:54:59;11.20;;;7.50;;
31786;SDS011;18356;52.380;9.820;2022-10-17T05:57:25;17.83;;;7.18;;
31786;SDS011;18356;52.380;9.820;2022-10-17T05:59:52;10.95;;;6.80;;
31786;SDS011;18356;52.380;9.820;2022-10-17T06:02:18;9.88;;;6.50;;
31786;SDS011;18356;52.380;9.820;2022-10-17T06:04:44;9.80;;;5.80;;
31786;SDS011;18356;52.380;9.820;2022-10-17T06:07:12;11.57;;;6.20;;
31786;SDS011;18356;52.380;9.820;2022-10-17T06:09:38;9.45;;;5.65;;
31786;SDS011;18356;52.380;9.820;2022-10-17T06:12:04;11.00;;;5.57;;
31786;SDS011;18356;52.380;9.820;2022-10-17T06:14:31;6.53;;;4.88;;
31786;SDS011;18356;52.380;9.820;2022-10-17T06:16:57;10.05;;;5.03;;
31786;SDS011;18356;52.380;9.820;2022-10-17T06:19:23;13.00;;;4.85;;
31786;SDS011;18356;52.380;9.820;2022-10-17T06:21:49;15.52;;;5.50;;
31786;SDS011;18356;52.380;9.820;2022-10-17T06:24:15;9.27;;;5.38;;
31786;SDS011;18356;52.380;9.820;2022-10-17T06:26:41;9.68;;;5.18;;
31786;SDS011;18356;52.380;9.820;2022-10-17T06:29:08;10.10;;;4.85;;
31786;SDS011;18356;52.380;9.820;2022-10-17T06:31:34;12.90;;;4.80;;
31786;SDS011;18356;52.380;9.820;2022-10-17T06:34:00;9.02;;;4.70;;
31786;SDS011;18356;52.380;9.820;2022-10-17T06:36:26;11.80;;;5.28;;
31786;SDS011;18356;52.380;9.820;2022-10-17T06:38:52;10.20;;;5.05;;
31786;SDS011;18356;52.380;9.820;2022-10-17T06:41:18;9.48;;;4.82;;
31786;SDS011;18356;52.380;9.820;2022-10-17T06:43:45;8.80;;;4.78;;
31786;SDS011;18356;52.380;9.820;2022-10-17T06:46:15;9.32;;;5.43;;
31786;SDS011;18356;52.380;9.820;2022-10-17T06:48:41;10.73;;;5.10;;
31786;SDS011;18356;52.380;9.820;2022-10-17T06:51:07;17.58;;;5.82;;
31786;SDS011;18356;52.380;9.820;2022-10-17T06:53:37;14.57;;;4.60;;
31786;SDS011;18356;52.380;9.820;2022-10-17T06:56:04;10.90;;;4.90;;
31786;SDS011;18356;52.380;9.820;2022-10-17T06:58:34;9.23;;;4.65;;
31786;SDS011;18356;52.380;9.820;2022-10-17T07:01:04;12.60;;;4.70;;
31786;SDS011;18356;52.380;9.820;2022-10-17T07:03:31;8.90;;;4.05;;
31786;SDS011;18356;52.380;9.820;2022-10-17T07:05:57;8.40;;;4.22;;
31786;SDS011;18356;52.380;9.820;2022-10-17T07:08:24;9.98;;;4.38;;
31786;SDS011;18356;52.380;9.820;2022-10-17T07:10:50;9.63;;;3.88;;
31786;SDS011;18356;52.380;9.820;2022-10-17T07:13:17;14.38;;;4.25;;
31786;SDS011;18356;52.380;9.820;2022-10-17T07:15:43;8.05;;;4.00;;
31786;SDS011;18356;52.380;9.820;2022-10-17T07:18:09;12.90;;;4.00;;
31786;SDS011;18356;52.380;9.820;2022-10-17T07:20:35;14.30;;;3.83;;
31786;SDS011;18356;52.380;9.820;2022-10-17T07:23:01;6.53;;;3.40;;
31786;SDS011;18356;52.380;9.820;2022-10-17T07:25:27;12.73;;;3.85;;
31786;SDS011;18356;52.380;9.820;2022-10-17T07:27:54;6.68;;;2.95;;
31786;SDS011;18356;52.380;9.820;2022-10-17T07:30:20;7.72;;;3.35;;
31786;SDS011;18356;52.380;9.820;2022-10-17T07:32:46;6.57;;;3.22;;
31786;SDS011;18356;52.380;9.820;2022-10-17T07:35:13;5.95;;;3.05;;
31786;SDS011;18356;52.380;9.820;2022-10-17T07:37:39;8.95;;;3.20;;
31786;SDS011;18356;52.380;9.820;2022-10-17T07:40:06;8.10;;;2.97;;
31786;SDS011;18356;52.380;9.820;2022-10-17T07:42:34;6.60;;;3.17;;
31786;SDS011;18356;52.380;9.820;2022-10-17T07:45:01;7.70;;;3.33;;
31786;SDS011;18356;52.380;9.820;2022-10-17T07:47:27;8.65;;;6.00;;
31786;SDS011;18356;52.380;9.820;2022-10-17T07:49:55;7.90;;;3.40;;
31786;SDS011;18356;52.380;9.820;2022-10-17T07:52:21;6.15;;;2.65;;
31786;SDS011;18356;52.380;9.820;2022-10-17T07:54:47;11.68;;;3.15;;
31786;SDS011;18356;52.380;9.820;2022-10-17T07:57:13;7.85;;;2.65;;
31786;SDS011;18356;52.380;9.820;2022-10-17T07:59:42;9.48;;;3.10;;
31786;SDS011;18356;52.380;9.820;2022-10-17T08:02:12;11.10;;;2.60;;
31786;SDS011;18356;52.380;9.820;2022-10-17T08:04:42;5.82;;;2.45;;
31786;SDS011;18356;52.380;9.820;2022-10-17T08:07:08;9.90;;;3.00;;
31786;SDS011;18356;52.380;9.820;2022-10-17T08:09:34;11.35;;;2.88;;
31786;SDS011;18356;52.380;9.820;2022-10-17T08:12:00;8.90;;;2.65;;
31786;SDS011;18356;52.380;9.820;2022-10-17T08:14:26;10.98;;;2.80;;
31786;SDS011;18356;52.380;9.820;2022-10-17T08:16:53;7.55;;;2.30;;
31786;SDS011;18356;52.380;9.820;2022-10-17T08:19:19;5.60;;;2.50;;
31786;SDS011;18356;52.380;9.820;2022-10-17T08:21:45;5.97;;;3.30;;
31786;SDS011;18356;52.380;9.820;2022-10-17T08:24:13;5.35;;;2.67;;
31786;SDS011;18356;52.380;9.820;2022-10-17T08:26:39;10.57;;;2.72;;
31786;SDS011;18356;52.380;9.820;2022-10-17T08:29:10;8.05;;;2.63;;
31786;SDS011;18356;52.380;9.820;2022-10-17T08:31:37;5.55;;;2.72;;
31786;SDS011;18356;52.380;9.820;2022-10-17T08:34:03;6.32;;;2.72;;
31786;SDS011;18356;52.380;9.820;2022-10-17T08:36:29;6.53;;;2.60;;
31786;SDS011;18356;52.380;9.820;2022-10-17T08:38:55;7.30;;;2.20;;
31786;SDS011;18356;52.380;9.820;2022-10-17T08:41:33;4.88;;;2.45;;
31786;SDS011;18356;52.380;9.820;2022-10-17T08:44:15;6.05;;;2.50;;
31786;SDS011;18356;52.380;9.820;2022-10-17T08:46:46;10.32;;;2.75;;
31786;SDS011;18356;52.380;9.820;2022-10-17T08:49:38;5.10;;;2.00;;
31786;SDS011;18356;52.380;9.820;2022-10-17T08:52:19;7.15;;;2.63;;
31786;SDS011;18356;52.380;9.820;2022-10-17T08:54:47;6.38;;;2.65;;
31786;SDS011;18356;52.380;9.820;2022-10-17T08:57:14;11.25;;;3.17;;
31786;SDS011;18356;52.380;9.820;2022-10-17T08:59:41;8.68;;;2.63;;
31786;SDS011;18356;52.380;9.820;2022-10-17T09:07:26;11.07;;;2.97;;
31786;SDS011;18356;52.380;9.820;2022-10-17T09:12:25;5.25;;;2.20;;
31786;SDS011;18356;52.380;9.820;2022-10-17T09:22:22;10.63;;;2.60;;
31786;SDS011;18356;52.380;9.820;2022-10-17T09:30:01;6.80;;;2.50;;
31786;SDS011;18356;52.380;9.820;2022-10-17T09:32:35;9.52;;;4.55;;
31786;SDS011;18356;52.380;9.820;2022-10-17T09:35:02;8.52;;;2.53;;
31786;SDS011;18356;52.380;9.820;2022-10-17T09:37:31;8.15;;;2.40;;
31786;SDS011;18356;52.380;9.820;2022-10-17T09:39:57;10.65;;;2.60;;
31786;SDS011;18356;52.380;9.820;2022-10-17T09:42:24;16.15;;;2.80;;
31786;SDS011;18356;52.380;9.820;2022-10-17T09:49:51;10.43;;;2.47;;
31786;SDS011;18356;52.380;9.820;2022-10-17T09:52:21;13.93;;;7.72;;
31786;SDS011;18356;52.380;9.820;2022-10-17T09:54:51;10.00;;;2.58;;
31786;SDS011;18356;52.380;9.820;2022-10-17T09:57:19;12.90;;;2.50;;
31786;SDS011;18356;52.380;9.820;2022-10-17T09:59:46;7.20;;;2.70;;
31786;SDS011;18356;52.380;9.820;2022-10-17T10:02:17;9.52;;;2.88;;
31786;SDS011;18356;52.380;9.820;2022-10-17T10:04:54;4.13;;;2.28;;
31786;SDS011;18356;52.380;9.820;2022-10-17T10:07:21;6.65;;;2.70;;
31786;SDS011;18356;52.380;9.820;2022-10-17T10:09:48;8.43;;;2.60;;
31786;SDS011;18356;52.380;9.820;2022-10-17T10:12:36;6.28;;;2.30;;
31786;SDS011;18356;52.380;9.820;2022-10-17T10:15:01;12.80;;;2.70;;
31786;SDS011;18356;52.380;9.820;2022-10-17T10:17:34;6.22;;;2.67;;
31786;SDS011;18356;52.380;9.820;2022-10-17T10:20:02;12.65;;;9.60;;
31786;SDS011;18356;52.380;9.820;2022-10-17T10:22:28;8.63;;;2.80;;
31786;SDS011;18356;52.380;9.820;2022-10-17T10:27:36;10.05;;;2.83;;
31786;SDS011;18356;52.380;9.820;2022-10-17T10:30:04;7.82;;;2.47;;
31786;SDS011;18356;52.380;9.820;2022-10-17T10:32:31;6.72;;;2.75;;
31786;SDS011;18356;52.380;9.820;2022-10-17T10:35:02;12.32;;;2.90;;
31786;SDS011;18356;52.380;9.820;2022-10-17T10:37:36;14.88;;;3.35;;
31786;SDS011;18356;52.380;9.820;2022-10-17T10:40:03;5.43;;;2.50;;
31786;SDS011;18356;52.380;9.820;2022-10-17T10:42:37;5.68;;;2.60;;
31786;SDS011;18356;52.380;9.820;2022-10-17T10:45:23;7.70;;;2.30;;
31786;SDS011;18356;52.380;9.820;2022-10-17T10:47:50;7.13;;;2.25;;
31786;SDS011;18356;52.380;9.820;2022-10-17T10:50:23;7.70;;;2.80;;
31786;SDS011;18356;52.380;9.820;2022-10-17T10:53:06;8.93;;;2.25;;
31786;SDS011;18356;52.380;9.820;2022-10-17T10:55:37;6.25;;;2.28;;
31786;SDS011;18356;52.380;9.820;2022-10-17T10:58:29;7.30;;;2.22;;
31786;SDS011;18356;52.380;9.820;2022-10-17T11:00:51;11.52;;;2.47;;
31786;SDS011;18356;52.380;9.820;2022-10-17T11:03:20;7.32;;;2.20;;
31786;SDS011;18356;52.380;9.820;2022-10-17T11:05:50;10.68;;;2.30;;
31786;SDS011;18356;52.380;9.820;2022-10-17T11:13:47;12.57;;;2.40;;
31786;SDS011;18356;52.380;9.820;2022-10-17T11:22:01;4.97;;;2.30;;
31786;SDS011;18356;52.380;9.820;2022-10-17T11:24:22;8.27;;;2.20;;
31786;SDS011;18356;52.380;9.820;2022-10-17T11:27:04;7.00;;;2.40;;
31786;SDS011;18356;52.380;9.820;2022-10-17T11:29:33;10.20;;;2.88;;
31786;SDS011;18356;52.380;9.820;2022-10-17T11:32:05;5.05;;;2.03;;
31786;SDS011;18356;52.380;9.820;2022-10-17T11:34:34;4.70;;;2.35;;
31786;SDS011;18356;52.380;9.820;2022-10-17T11:37:04;8.65;;;2.30;;
31786;SDS011;18356;52.380;9.820;2022-10-17T11:44:52;9.32;;;2.80;;
31786;SDS011;18356;52.380;9.820;2022-10-17T11:50:08;9.63;;;2.05;;
31786;SDS011;18356;52.380;9.820;2022-10-17T11:55:22;6.97;;;2.30;;
31786;SDS011;18356;52.380;9.820;2022-10-17T12:00:37;6.50;;;1.75;;
31786;SDS011;18356;52.380;9.820;2022-10-17T12:08:22;10.27;;;2.13;;
31786;SDS011;18356;52.380;9.820;2022-10-17T12:11:39;9.77;;;2.25;;
31786;SDS011;18356;52.380;9.820;2022-10-17T12:18:49;9.48;;;2.50;;
31786;SDS011;18356;52.380;9.820;2022-10-17T12:21:16;6.90;;;2.40;;
31786;SDS011;18356;52.380;9.820;2022-10-17T12:23:52;7.60;;;2.42;;
31786;SDS011;18356;52.380;9.820;2022-10-17T12:26:25;6.13;;;2.22;;
31786;SDS011;18356;52.380;9.820;2022-10-17T12:28:51;5.43;;;2.10;;
31786;SDS011;18356;52.380;9.820;2022-10-17T12:33:52;7.78;;;2.30;;
31786;SDS011;18356;52.380;9.820;2022-10-17T12:54:36;6.75;;;1.90;;
31786;SDS011;18356;52.380;9.820;2022-10-17T12:57:08;11.45;;;2.28;;
31786;SDS011;18356;52.380;9.820;2022-10-17T12:59:39;9.52;;;2.15;;
31786;SDS011;18356;52.380;9.820;2022-10-17T13:02:10;5.57;;;2.15;;
31786;SDS011;18356;52.380;9.820;2022-10-17T13:04:41;8.35;;;2.75;;
31786;SDS011;18356;52.380;9.820;2022-10-17T13:07:12;8.05;;;2.58;;
31786;SDS011;18356;52.380;9.820;2022-10-17T13:09:41;9.30;;;2.47;;
31786;SDS011;18356;52.380;9.820;2022-10-17T13:12:11;9.73;;;2.45;;
31786;SDS011;18356;52.380;9.820;2022-10-17T13:14:39;5.95;;;2.10;;
31786;SDS011;18356;52.380;9.820;2022-10-17T13:17:11;4.57;;;2.03;;
31786;SDS011;18356;52.380;9.820;2022-10-17T13:19:44;11.07;;;2.53;;
31786;SDS011;18356;52.380;9.820;2022-10-17T13:22:22;6.75;;;2.25;;
31786;SDS011;18356;52.380;9.820;2022-10-17T13:24:49;4.88;;;2.30;;
31786;SDS011;18356;52.380;9.820;2022-10-17T13:27:29;11.18;;;2.65;;
31786;SDS011;18356;52.380;9.820;2022-10-17T13:29:56;4.35;;;2.33;;
31786;SDS011;18356;52.380;9.820;2022-10-17T13:32:23;6.40;;;2.40;;
31786;SDS011;18356;52.380;9.820;2022-10-17T13:35:09;7.93;;;2.40;;
31786;SDS011;18356;52.380;9.820;2022-10-17T13:37:35;5.60;;;2.10;;
31786;SDS011;18356;52.380;9.820;2022-10-17T13:40:02;11.93;;;3.10;;
31786;SDS011;18356;52.380;9.820;2022-10-17T13:42:29;11.73;;;2.70;;
31786;SDS011;18356;52.380;9.820;2022-10-17T13:44:56;9.98;;;2.47;;
31786;SDS011;18356;52.380;9.820;2022-10-17T13:47:23;9.50;;;2.60;;
31786;SDS011;18356;52.380;9.820;2022-10-17T13:49:50;13.70;;;3.45;;
31786;SDS011;18356;52.380;9.820;2022-10-17T13:52:18;9.07;;;2.50;;
31786;SDS011;18356;52.380;9.820;2022-10-17T13:54:45;7.20;;;2.60;;
31786;SDS011;18356;52.380;9.820;2022-10-17T13:59:44;7.30;;;2.47;;
31786;SDS011;18356;52.380;9.820;2022-10-17T14:02:15;11.77;;;2.50;;
31786;SDS011;18356;52.380;9.820;2022-10-17T14:04:41;6.20;;;2.50;;
31786;SDS011;18356;52.380;9.820;2022-10-17T14:09:52;7.57;;;2.60;;
31786;SDS011;18356;52.380;9.820;2022-10-17T14:12:18;7.70;;;2.53;;
31786;SDS011;18356;52.380;9.820;2022-10-17T14:14:46;6.28;;;2.30;;
31786;SDS011;18356;52.380;9.820;2022-10-17T14:17:22;9.93;;;2.60;;
31786;SDS011;18356;52.380;9.820;2022-10-17T14:19:52;5.47;;;2.60;;
31786;SDS011;18356;52.380;9.820;2022-10-17T14:24:48;6.22;;;3.00;;
31786;SDS011;18356;52.380;9.820;2022-10-17T14:29:56;7.78;;;2.78;;
31786;SDS011;18356;52.380;9.820;2022-10-17T14:32:25;12.60;;;3.35;;
31786;SDS011;18356;52.380;9.820;2022-10-17T14:34:53;6.25;;;2.65;;
31786;SDS011;18356;52.380;9.820;2022-10-17T14:39:55;13.40;;;3.13;;
31786;SDS011;18356;52.380;9.820;2022-10-17T14:42:23;8.00;;;2.88;;
31786;SDS011;18356;52.380;9.820;2022-10-17T14:44:50;10.38;;;3.22;;
31786;SDS011;18356;52.380;9.820;2022-10-17T14:47:18;10.77;;;2.50;;
31786;SDS011;18356;52.380;9.820;2022-10-17T14:49:47;7.90;;;3.08;;
31786;SDS011;18356;52.380;9.820;2022-10-17T14:54:40;9.38;;;3.33;;
31786;SDS011;18356;52.380;9.820;2022-10-17T14:59:46;8.65;;;2.88;;
31786;SDS011;18356;52.380;9.820;2022-10-17T15:02:12;9.20;;;3.17;;
31786;SDS011;18356;52.380;9.820;2022-10-17T15:04:39;5.85;;;2.75;;
31786;SDS011;18356;52.380;9.820;2022-10-17T15:07:05;8.95;;;3.15;;
31786;SDS011;18356;52.380;9.820;2022-10-17T15:09:31;11.02;;;3.15;;
31786;SDS011;18356;52.380;9.820;2022-10-17T15:12:00;11.07;;;3.22;;
31786;SDS011;18356;52.380;9.820;2022-10-17T15:14:27;8.07;;;2.90;;
31786;SDS011;18356;52.380;9.820;2022-10-17T15:16:53;13.02;;;3.40;;
31786;SDS011;18356;52.380;9.820;2022-10-17T15:19:19;10.63;;;3.42;;
31786;SDS011;18356;52.380;9.820;2022-10-17T15:21:45;11.48;;;3.60;;
31786;SDS011;18356;52.380;9.820;2022-10-17T15:24:11;8.32;;;2.97;;
31786;SDS011;18356;52.380;9.820;2022-10-17T15:26:39;15.10;;;3.88;;
31786;SDS011;18356;52.380;9.820;2022-10-17T15:29:05;8.93;;;3.42;;
31786;SDS011;18356;52.380;9.820;2022-10-17T15:31:31;13.05;;;3.75;;
31786;SDS011;18356;52.380;9.820;2022-10-17T15:33:58;7.53;;;3.47;;
31786;SDS011;18356;52.380;9.820;2022-10-17T15:36:24;10.77;;;3.28;;
31786;SDS011;18356;52.380;9.820;2022-10-17T15:38:52;7.70;;;3.10;;
31786;SDS011;18356;52.380;9.820;2022-10-17T15:41:19;9.30;;;3.50;;
31786;SDS011;18356;52.380;9.820;2022-10-17T15:43:46;13.25;;;3.38;;
31786;SDS011;18356;52.380;9.820;2022-10-17T15:46:14;13.45;;;3.35;;
31786;SDS011;18356;52.380;9.820;2022-10-17T15:48:41;10.45;;;3.65;;
31786;SDS011;18356;52.380;9.820;2022-10-17T15:51:08;9.60;;;3.53;;
31786;SDS011;18356;52.380;9.820;2022-10-17T15:53:34;12.02;;;3.60;;
31786;SDS011;18356;52.380;9.820;2022-10-17T15:56:00;10.13;;;3.30;;
31786;SDS011;18356;52.380;9.820;2022-10-17T15:58:28;8.85;;;3.22;;
31786;SDS011;18356;52.380;9.820;2022-10-17T16:00:57;10.38;;;3.65;;
31786;SDS011;18356;52.380;9.820;2022-10-17T16:03:23;10.55;;;3.25;;
31786;SDS011;18356;52.380;9.820;2022-10-17T16:05:49;6.35;;;3.35;;
31786;SDS011;18356;52.380;9.820;2022-10-17T16:08:15;10.82;;;3.40;;
31786;SDS011;18356;52.380;9.820;2022-10-17T16:10:41;15.85;;;3.47;;
31786;SDS011;18356;52.380;9.820;2022-10-17T16:13:10;11.73;;;3.20;;
31786;SDS011;18356;52.380;9.820;2022-10-17T16:15:37;11.98;;;3.08;;
31786;SDS011;18356;52.380;9.820;2022-10-17T16:18:03;9.23;;;3.40;;
31786;SDS011;18356;52.380;9.820;2022-10-17T16:20:29;12.27;;;3.38;;
31786;SDS011;18356;52.380;9.820;2022-10-17T16:22:56;10.57;;;3.35;;
31786;SDS011;18356;52.380;9.820;2022-10-17T16:25:25;10.68;;;3.60;;
31786;SDS011;18356;52.380;9.820;2022-10-17T16:27:54;11.63;;;3.58;;
31786;SDS011;18356;52.380;9.820;2022-10-17T16:30:22;12.70;;;3.70;;
31786;SDS011;18356;52.380;9.820;2022-10-17T16:32:48;12.77;;;3.75;;
31786;SDS011;18356;52.380;9.820;2022-10-17T16:35:19;9.90;;;4.10;;
31786;SDS011;18356;52.380;9.820;2022-10-17T16:37:45;6.70;;;3.75;;
31786;SDS011;18356;52.380;9.820;2022-10-17T16:40:11;9.60;;;3.88;;
31786;SDS011;18356;52.380;9.820;2022-10-17T16:42:38;10.50;;;4.18;;
31786;SDS011;18356;52.380;9.820;2022-10-17T16:45:04;12.45;;;4.28;;
31786;SDS011;18356;52.380;9.820;2022-10-17T16:47:30;10.48;;;3.92;;
31786;SDS011;18356;52.380;9.820;2022-10-17T16:49:56;15.13;;;4.32;;
31786;SDS011;18356;52.380;9.820;2022-10-17T16:52:22;11.70;;;3.72;;
31786;SDS011;18356;52.380;9.820;2022-10-17T16:54:48;9.30;;;3.78;;